createdAt,value
2023-01-08T00:00:59.064Z,100926.28
2023-01-08T00:04:02.436Z,100926.38
2023-01-08T00:07:05.633Z,100929.78
2023-01-08T00:10:12.794Z,100915.03
2023-01-08T00:13:16.398Z,100913.25
2023-01-08T00:16:20.945Z,100913.16
2023-01-08T00:19:23.528Z,100915.56
2023-01-08T00:22:26.617Z,100916.38
2023-01-08T00:25:29.368Z,100908.53
2023-01-08T00:28:35.401Z,100907.72
2023-01-08T00:31:38.212Z,100902.53
2023-01-08T00:34:42.268Z,100896.38
2023-01-08T00:37:48.806Z,100898.34
2023-01-08T00:40:53.612Z,100901.75
2023-01-08T00:43:56.039Z,100902.53
2023-01-08T00:46:59.752Z,100906.91
2023-01-08T00:50:03.112Z,100909.69
2023-01-08T00:53:06.412Z,100917.53
2023-01-08T00:56:10.703Z,100919.16
2023-01-08T00:59:13.939Z,100923.59
2023-01-08T01:02:17.612Z,100921.91
2023-01-08T01:05:23.894Z,100921.91
2023-01-08T01:08:26.810Z,100920.22
2023-01-08T01:11:30.470Z,100922.81
2023-01-08T01:14:33.027Z,100924.41
2023-01-08T01:17:38.763Z,100913.88
2023-01-08T01:20:41.715Z,100912.09
2023-01-08T01:23:44.809Z,100907.63
2023-01-08T01:26:47.610Z,100906.03
2023-01-08T01:29:50.636Z,100905.03
2023-01-08T01:32:53.251Z,100908.53
2023-01-08T01:36:02.055Z,100901.66
2023-01-08T01:39:05.899Z,100897.28
2023-01-08T01:42:37.448Z,100892.00
2023-01-08T01:45:41.094Z,100884.06
2023-01-08T01:48:45.443Z,100881.47
2023-01-08T01:51:56.249Z,100881.47
2023-01-08T01:55:01.827Z,100875.50
2023-01-08T01:58:32.971Z,100871.13
2023-01-08T02:01:36.685Z,100865.06
2023-01-08T02:04:40.976Z,100859.78
2023-01-08T02:07:59.035Z,100847.66
2023-01-08T02:11:08.713Z,100849.16
2023-01-08T02:14:37.257Z,100845.78
2023-01-08T02:17:46.199Z,100838.81
2023-01-08T02:20:56.470Z,100837.81
2023-01-08T02:24:08.365Z,100843.00
2023-01-08T02:27:13.165Z,100834.25
2023-01-08T02:30:16.094Z,100839.44
2023-01-08T02:33:19.135Z,100837.75
2023-01-08T02:36:45.044Z,100844.44
2023-01-08T02:40:19.737Z,100831.41
2023-01-08T02:43:47.309Z,100819.09
2023-01-08T02:46:54.728Z,100821.59
2023-01-08T02:50:21.788Z,100824.97
2023-01-08T02:53:35.231Z,100813.75
2023-01-08T02:56:44.780Z,100814.28
2023-01-08T02:59:50.817Z,100820.34
2023-01-08T03:03:06.240Z,100816.16
2023-01-08T03:06:12.897Z,100820.53
2023-01-08T03:09:17.297Z,100809.19
2023-01-08T03:12:33.405Z,100819.38
2023-01-08T03:15:46.763Z,100809.00
2023-01-08T03:19:15.781Z,100801.97
2023-01-08T03:22:20.174Z,100801.75
2023-01-08T03:25:26.343Z,100790.50
2023-01-08T03:28:34.955Z,100789.53
2023-01-08T03:31:40.727Z,100789.53
2023-01-08T03:34:45.908Z,100794.78
2023-01-08T03:37:58.935Z,100799.97
2023-01-08T03:41:13.854Z,100792.28
2023-01-08T03:44:16.711Z,100796.50
2023-01-08T03:47:22.746Z,100801.66
2023-01-08T03:50:29.519Z,100792.28
2023-01-08T03:53:32.209Z,100795.09
2023-01-08T03:56:34.986Z,100789.84
2023-01-08T03:59:38.616Z,100790.72
2023-01-08T04:02:44.440Z,100787.03
2023-01-08T04:05:47.905Z,100782.56
2023-01-08T04:08:50.756Z,100776.50
2023-01-08T04:11:54.059Z,100784.25
2023-01-08T04:14:57.364Z,100778.19
2023-01-08T04:18:00.573Z,100779.72
2023-01-08T04:21:03.567Z,100779.44
2023-01-08T04:24:07.072Z,100775.00
2023-01-08T04:27:10.126Z,100776.59
2023-01-08T04:30:13.229Z,100772.31
2023-01-08T04:33:16.086Z,100774.09
2023-01-08T04:36:18.941Z,100761.16
2023-01-08T04:39:21.459Z,100769.47
2023-01-08T04:42:24.173Z,100760.00
2023-01-08T04:45:26.953Z,100770.16
2023-01-08T04:48:30.801Z,100778.09
2023-01-08T04:51:33.815Z,100784.16
2023-01-08T04:54:36.985Z,100785.97
2023-01-08T04:57:39.606Z,100777.31
2023-01-08T05:00:43.459Z,100776.50
2023-01-08T05:03:56.111Z,100773.81
2023-01-08T05:06:59.273Z,100780.69
2023-01-08T05:10:02.430Z,100774.44
2023-01-08T05:13:08.356Z,100781.22
2023-01-08T05:16:11.192Z,100771.69
2023-01-08T05:19:15.714Z,100764.72
2023-01-08T05:22:20.588Z,100775.16
2023-01-08T05:25:23.902Z,100768.03
2023-01-08T05:28:27.925Z,100772.47
2023-01-08T05:31:30.804Z,100769.09
2023-01-08T05:34:34.484Z,100764.91
2023-01-08T05:37:38.094Z,100766.41
2023-01-08T05:40:40.864Z,100768.91
2023-01-08T05:43:43.639Z,100763.75
2023-01-08T05:46:52.999Z,100764.47
2023-01-08T05:49:56.381Z,100757.69
2023-01-08T05:53:02.320Z,100754.03
2023-01-08T05:56:09.332Z,100758.47
2023-01-08T05:59:13.849Z,100755.91
2023-01-08T06:02:17.081Z,100751.63
2023-01-08T06:05:21.142Z,100737.78
2023-01-08T06:08:23.917Z,100740.38
2023-01-08T06:11:26.839Z,100736.91
2023-01-08T06:14:31.529Z,100729.88
2023-01-08T06:17:35.120Z,100729.88
2023-01-08T06:20:39.453Z,100730.66
2023-01-08T06:23:44.597Z,100733.34
2023-01-08T06:26:50.018Z,100727.28
2023-01-08T06:29:54.141Z,100721.91
2023-01-08T06:33:04.258Z,100727.19
2023-01-08T06:36:08.039Z,100724.50
2023-01-08T06:39:11.237Z,100728.16
2023-01-08T06:42:15.161Z,100723.00
2023-01-08T06:45:18.085Z,100718.34
2023-01-08T06:48:21.355Z,100715.78
2023-01-08T06:51:25.405Z,100709.72
2023-01-08T06:54:29.024Z,100708.81
2023-01-08T06:57:35.799Z,100709.81
2023-01-08T07:00:39.789Z,100727.19
2023-01-08T07:03:43.204Z,100725.66
2023-01-08T07:06:48.557Z,100724.87
2023-01-08T07:09:51.411Z,100723.97
2023-01-08T07:12:55.586Z,100720.50
2023-01-08T07:15:58.985Z,100718.81
2023-01-08T07:19:04.072Z,100712.91
2023-01-08T07:22:08.592Z,100723.25
2023-01-08T07:25:12.419Z,100719.88
2023-01-08T07:28:21.194Z,100718.97
2023-01-08T07:31:26.145Z,100719.06
2023-01-08T07:34:29.217Z,100713.09
2023-01-08T07:37:33.178Z,100720.94
2023-01-08T07:40:39.298Z,100704.63
2023-01-08T07:43:42.516Z,100715.06
2023-01-08T07:46:46.693Z,100709.09
2023-01-08T07:49:53.737Z,100710.88
2023-01-08T07:53:01.110Z,100712.81
2023-01-08T07:56:07.972Z,100711.03
2023-01-08T07:59:13.177Z,100704.25
2023-01-08T08:02:22.344Z,100707.66
2023-01-08T08:05:25.619Z,100703.62
2023-01-08T08:08:36.624Z,100704.44
2023-01-08T08:11:41.295Z,100699.34
2023-01-08T08:14:45.244Z,100696.84
2023-01-08T08:17:50.030Z,100687.47
2023-01-08T08:20:53.678Z,100684.00
2023-01-08T08:24:07.973Z,100688.28
2023-01-08T08:27:21.079Z,100687.47
2023-01-08T08:30:24.794Z,100680.78
2023-01-08T08:33:35.070Z,100673.19
2023-01-08T08:36:38.514Z,100667.22
2023-01-08T08:39:44.617Z,100666.63
2023-01-08T08:42:50.296Z,100664.22
2023-01-08T08:45:56.810Z,100671.44
2023-01-08T08:49:02.218Z,100662.38
2023-01-08T08:52:05.693Z,100657.72
2023-01-08T08:55:17.508Z,100652.88
2023-01-08T08:58:23.155Z,100654.25
2023-01-08T09:01:50.061Z,100651.28
2023-01-08T09:05:00.648Z,100645.19
2023-01-08T09:08:09.146Z,100646.50
2023-01-08T09:11:15.260Z,100655.25
2023-01-08T09:14:21.108Z,100644.31
2023-01-08T09:17:26.069Z,100648.78
2023-01-08T09:20:31.372Z,100640.75
2023-01-08T09:23:47.032Z,100643.22
2023-01-08T09:26:54.353Z,100642.91
2023-01-08T09:29:57.163Z,100640.00
2023-01-08T09:33:10.038Z,100635.28
2023-01-08T09:36:14.223Z,100634.00
2023-01-08T09:39:22.049Z,100625.00
2023-01-08T09:42:33.237Z,100618.12
2023-01-08T09:45:40.255Z,100612.19
2023-01-08T09:48:48.472Z,100605.31
2023-01-08T09:51:51.789Z,100595.50
2023-01-08T09:54:54.907Z,100576.16
2023-01-08T09:58:05.173Z,100588.09
2023-01-08T10:01:17.178Z,100567.59
2023-01-08T10:04:25.028Z,100567.31
2023-01-08T10:07:30.498Z,100567.31
2023-01-08T10:10:46.077Z,100553.78
2023-01-08T10:13:57.537Z,100555.84
2023-01-08T10:17:26.928Z,100532.75
2023-01-08T10:20:37.047Z,100531.84
2023-01-08T10:23:53.293Z,100525.88
2023-01-08T10:27:08.354Z,100524.28
2023-01-08T10:30:21.317Z,100517.81
2023-01-08T10:33:39.264Z,100512.75
2023-01-08T10:37:01.710Z,100507.72
2023-01-08T10:40:29.572Z,100518.28
2023-01-08T10:43:49.039Z,100504.00
2023-01-08T10:47:02.026Z,100495.56
2023-01-08T10:50:22.666Z,100480.69
2023-01-08T10:53:30.329Z,100481.28
2023-01-08T10:56:44.826Z,100476.88
2023-01-08T10:59:56.250Z,100472.88
2023-01-08T11:03:03.271Z,100474.81
2023-01-08T11:06:14.033Z,100467.72
2023-01-08T11:09:26.305Z,100454.37
2023-01-08T11:12:41.490Z,100456.97
2023-01-08T11:15:46.769Z,100445.84
2023-01-08T11:18:51.984Z,100439.84
2023-01-08T11:22:04.982Z,100435.34
2023-01-08T11:25:14.784Z,100430.47
2023-01-08T11:28:29.152Z,100427.09
2023-01-08T11:32:00.927Z,100423.69
2023-01-08T11:35:20.905Z,100421.53
2023-01-08T11:38:25.681Z,100408.84
2023-01-08T11:41:45.270Z,100405.50
2023-01-08T11:45:12.088Z,100397.78
2023-01-08T11:48:47.130Z,100389.59
2023-01-08T11:52:14.882Z,100380.84
2023-01-08T11:55:41.612Z,100369.16
2023-01-08T11:58:51.635Z,100368.97
2023-01-08T12:02:29.053Z,100365.38
2023-01-08T12:05:48.108Z,100359.37
2023-01-08T12:09:20.060Z,100364.03
2023-01-08T12:13:05.039Z,100363.22
2023-01-08T12:16:20.111Z,100354.59
2023-01-08T12:19:57.055Z,100355.37
2023-01-08T12:23:12.172Z,100344.81
2023-01-08T12:26:34.385Z,100349.09
2023-01-08T12:29:43.105Z,100345.56
2023-01-08T12:33:06.010Z,100342.00
2023-01-08T12:36:21.597Z,100338.47
2023-01-08T12:39:31.219Z,100343.62
2023-01-08T12:42:59.994Z,100343.62
2023-01-08T12:46:17.466Z,100346.34
2023-01-08T12:49:34.009Z,100341.13
2023-01-08T12:52:51.151Z,100335.81
2023-01-08T12:56:37.012Z,100340.94
2023-01-08T13:00:06.166Z,100333.94
2023-01-08T13:03:19.150Z,100332.19
2023-01-08T13:06:28.200Z,100332.03
2023-01-08T13:09:37.024Z,100331.09
2023-01-08T13:12:55.271Z,100325.78
2023-01-08T13:16:19.499Z,100322.19
2023-01-08T13:19:33.019Z,100313.44
2023-01-08T13:22:53.170Z,100320.38
2023-01-08T13:25:59.901Z,100312.59
2023-01-08T13:29:38.971Z,100311.06
2023-01-08T13:32:50.240Z,100302.63
2023-01-08T13:36:23.100Z,100301.81
2023-01-08T13:39:42.935Z,100305.37
2023-01-08T13:42:45.919Z,100307.81
2023-01-08T13:46:20.123Z,100302.56
2023-01-08T13:49:46.937Z,100296.66
2023-01-08T13:53:09.109Z,100298.63
2023-01-08T13:56:22.421Z,100296.91
2023-01-08T13:59:58.988Z,100298.56
2023-01-08T14:03:25.204Z,100296.75
2023-01-08T14:06:31.580Z,100299.41
2023-01-08T14:09:35.217Z,100297.44
2023-01-08T14:12:49.079Z,100299.91
2023-01-08T14:16:14.116Z,100290.19
2023-01-08T14:19:24.042Z,100291.22
2023-01-08T14:22:36.005Z,100290.56
2023-01-08T14:25:42.297Z,100292.22
2023-01-08T14:29:00.952Z,100294.66
2023-01-08T14:32:20.017Z,100290.09
2023-01-08T14:35:32.686Z,100292.97
2023-01-08T14:38:39.056Z,100288.66
2023-01-08T14:42:02.772Z,100292.09
2023-01-08T14:45:32.484Z,100284.22
2023-01-08T14:48:46.211Z,100287.75
2023-01-08T14:51:52.902Z,100288.03
2023-01-08T14:55:03.263Z,100284.78
2023-01-08T14:58:18.060Z,100279.47
2023-01-08T15:01:38.110Z,100278.81
2023-01-08T15:04:43.188Z,100274.50
2023-01-08T15:08:25.108Z,100273.16
2023-01-08T15:11:51.994Z,100271.63
2023-01-08T15:14:59.969Z,100276.06
2023-01-08T15:18:13.215Z,100279.53
2023-01-08T15:21:23.965Z,100269.53
2023-01-08T15:24:49.957Z,100269.19
2023-01-08T15:28:01.243Z,100268.34
2023-01-08T15:31:07.348Z,100262.28
2023-01-08T15:34:18.919Z,100271.03
2023-01-08T15:37:23.878Z,100272.81
2023-01-08T15:40:34.962Z,100256.31
2023-01-08T15:43:51.607Z,100253.66
2023-01-08T15:47:03.994Z,100255.34
2023-01-08T15:50:13.129Z,100250.09
2023-01-08T15:53:19.988Z,100249.19
2023-01-08T15:56:34.201Z,100244.88
2023-01-08T15:59:43.353Z,100239.59
2023-01-08T16:02:48.795Z,100235.12
2023-01-08T16:05:55.294Z,100232.72
2023-01-08T16:09:03.516Z,100238.94
2023-01-08T16:12:15.951Z,100238.22
2023-01-08T16:15:25.132Z,100241.59
2023-01-08T16:18:30.006Z,100244.97
2023-01-08T16:21:49.001Z,100243.94
2023-01-08T16:25:00.011Z,100238.91
2023-01-08T16:28:06.010Z,100233.56
2023-01-08T16:31:29.960Z,100233.37
2023-01-08T16:34:40.156Z,100235.16
2023-01-08T16:37:57.226Z,100224.59
2023-01-08T16:41:02.168Z,100233.22
2023-01-08T16:44:09.027Z,100227.16
2023-01-08T16:47:13.979Z,100224.47
2023-01-08T16:50:22.993Z,100227.06
2023-01-08T16:53:35.762Z,100225.28
2023-01-08T16:56:40.164Z,100226.84
2023-01-08T16:59:52.044Z,100226.72
2023-01-08T17:02:57.784Z,100219.84
2023-01-08T17:06:11.083Z,100228.31
2023-01-08T17:09:16.715Z,100223.94
2023-01-08T17:12:28.950Z,100218.59
2023-01-08T17:15:34.575Z,100224.63
2023-01-08T17:18:39.983Z,100223.66
2023-01-08T17:21:48.247Z,100215.09
2023-01-08T17:24:53.093Z,100213.09
2023-01-08T17:27:59.221Z,100214.63
2023-01-08T17:31:06.185Z,100211.97
2023-01-08T17:34:18.458Z,100223.16
2023-01-08T17:37:25.003Z,100208.31
2023-01-08T17:40:28.363Z,100212.53
2023-01-08T17:43:41.270Z,100207.31
2023-01-08T17:47:00.001Z,100201.09
2023-01-08T17:50:07.012Z,100208.91
2023-01-08T17:53:19.053Z,100209.87
2023-01-08T17:56:38.000Z,100203.75
2023-01-08T17:59:50.123Z,100203.63
2023-01-08T18:02:57.081Z,100194.16
2023-01-08T18:06:16.618Z,100205.56
2023-01-08T18:09:24.478Z,100202.69
2023-01-08T18:12:33.081Z,100201.84
2023-01-08T18:15:39.992Z,100208.69
2023-01-08T18:18:53.331Z,100204.41
2023-01-08T18:22:01.133Z,100205.19
2023-01-08T18:25:06.758Z,100211.19
2023-01-08T18:28:18.087Z,100202.41
2023-01-08T18:31:26.116Z,100213.59
2023-01-08T18:34:33.046Z,100209.38
2023-01-08T18:37:44.534Z,100210.31
2023-01-08T18:41:04.890Z,100210.50
2023-01-08T18:44:16.567Z,100209.63
2023-01-08T18:47:34.943Z,100210.50
2023-01-08T18:50:41.229Z,100213.09
2023-01-08T18:53:46.772Z,100209.63
2023-01-08T18:56:54.055Z,100213.00
2023-01-08T19:00:06.019Z,100218.12
2023-01-08T19:03:18.971Z,100211.25
2023-01-08T19:06:39.084Z,100205.94
2023-01-08T19:09:50.963Z,100214.53
2023-01-08T19:12:56.241Z,100211.97
2023-01-08T19:16:08.960Z,100211.94
2023-01-08T19:19:14.009Z,100210.16
2023-01-08T19:22:19.087Z,100209.28
2023-01-08T19:25:30.221Z,100215.19
2023-01-08T19:28:36.304Z,100211.66
2023-01-08T19:31:47.292Z,100209.78
2023-01-08T19:34:54.977Z,100221.03
2023-01-08T19:37:58.799Z,100204.44
2023-01-08T19:41:29.344Z,100201.72
2023-01-08T19:44:36.392Z,100192.94
2023-01-08T19:47:43.948Z,100198.00
2023-01-08T19:50:53.121Z,100201.38
2023-01-08T19:54:04.994Z,100194.31
2023-01-08T19:57:13.040Z,100199.47
2023-01-08T20:00:26.056Z,100195.19
2023-01-08T20:03:30.605Z,100195.19
2023-01-08T20:06:35.649Z,100189.03
2023-01-08T20:09:45.750Z,100190.81
2023-01-08T20:12:52.283Z,100189.78
2023-01-08T20:16:05.055Z,100187.06
2023-01-08T20:19:14.113Z,100184.41
2023-01-08T20:22:23.018Z,100179.06
2023-01-08T20:25:34.693Z,100180.59
2023-01-08T20:28:41.314Z,100179.75
2023-01-08T20:31:45.348Z,100173.81
2023-01-08T20:34:50.980Z,100167.62
2023-01-08T20:37:59.948Z,100171.22
2023-01-08T20:41:14.992Z,100170.25
2023-01-08T20:44:21.252Z,100172.63
2023-01-08T20:47:27.494Z,100168.16
2023-01-08T20:50:31.104Z,100173.28
2023-01-08T20:53:35.878Z,100166.16
2023-01-08T20:56:41.996Z,100172.03
2023-01-08T20:59:48.004Z,100160.53
2023-01-08T21:02:55.843Z,100160.16
2023-01-08T21:06:11.007Z,100160.84
2023-01-08T21:09:18.967Z,100152.19
2023-01-08T21:12:29.197Z,100160.69
2023-01-08T21:15:43.088Z,100159.63
2023-01-08T21:18:49.919Z,100153.19
2023-01-08T21:21:54.315Z,100154.56
2023-01-08T21:24:59.456Z,100146.59
2023-01-08T21:28:17.905Z,100146.41
2023-01-08T21:31:28.994Z,100147.09
2023-01-08T21:34:35.252Z,100146.91
2023-01-08T21:37:38.578Z,100136.25
2023-01-08T21:40:42.248Z,100140.22
2023-01-08T21:44:09.991Z,100142.00
2023-01-08T21:47:18.847Z,100139.72
2023-01-08T21:50:29.917Z,100139.91
2023-01-08T21:53:41.947Z,100131.94
2023-01-08T21:56:45.154Z,100139.50
2023-01-08T21:59:51.964Z,100129.00
2023-01-08T22:02:55.736Z,100126.19
2023-01-08T22:06:03.415Z,100127.84
2023-01-08T22:09:07.024Z,100125.25
2023-01-08T22:12:10.031Z,100121.75
2023-01-08T22:15:14.011Z,100114.03
2023-01-08T22:18:20.535Z,100112.41
2023-01-08T22:21:26.167Z,100112.59
2023-01-08T22:24:29.684Z,100112.81
2023-01-08T22:27:35.394Z,100102.53
2023-01-08T22:30:40.856Z,100101.63
2023-01-08T22:33:44.613Z,100109.50
2023-01-08T22:36:52.795Z,100101.75
2023-01-08T22:39:57.294Z,100101.75
2023-01-08T22:43:02.284Z,100088.59
2023-01-08T22:46:05.148Z,100089.31
2023-01-08T22:49:13.685Z,100073.56
2023-01-08T22:52:17.883Z,100077.16
2023-01-08T22:55:22.635Z,100067.16
2023-01-08T22:58:33.118Z,100061.91
2023-01-08T23:01:40.153Z,100055.56
2023-01-08T23:04:50.817Z,100059.00
2023-01-08T23:07:54.173Z,100058.34
2023-01-08T23:10:57.456Z,100050.69
2023-01-08T23:14:01.250Z,100042.00
2023-01-08T23:17:04.982Z,100036.63
2023-01-08T23:20:19.407Z,100032.03
2023-01-08T23:23:22.198Z,100027.59
2023-01-08T23:26:29.716Z,100019.09
2023-01-08T23:29:32.377Z,100022.34
2023-01-08T23:32:37.309Z,100025.88
2023-01-08T23:35:39.870Z,100014.66
2023-01-08T23:38:43.286Z,100017.25
2023-01-08T23:41:46.590Z,100017.25
2023-01-08T23:44:52.274Z,100024.38
2023-01-08T23:47:55.343Z,100003.63
2023-01-08T23:50:58.782Z,100003.75
2023-01-08T23:54:04.631Z,100009.16
2023-01-08T23:57:07.436Z,100000.53
